Saint-Eustache, Canada
Current Conditions -  °F | °C
As of 1:00 AM on Tuesday 21 Oct 2014 (Local Time) from CYMX Reporting Station
Rain Showers Rain Showers  
Wind Chill: 39°   Ceiling: 4000
Heat Index: 39°   Visibility: 25mi
Dew Point: 36°   Wind: 2mph
Humidity: 87%   Direction: 30°NNE
Pressure: 29.95"   Gusts: NA
Location:  45.57°N, 73.9°W
Report Text: CYMX 210500Z 03002KT 25SM -SHRA OVC040 04/02 A2995 RMK SC8 SLP146
Loading
Personal Weather Stations






























Interactive Weather Map New forecast layout! Learn more

10-Day Weather Forecast

Advertisements
Track Severe Weather on mobile